Flight Track Log - Related Links

Times and Time Zones

All times are in EDT time to prevent confusion due to time zone crossing. See the VH-RBF flight status page for this flight to view local times or setup timezone preferences in your user account.

Time Position Orientation Groundspeed Altitude Reporting Facility
EDT Latitude Longitude Course Direction KTS MPH feet Rate Location/Type
Tue 08:17:59 PM -16.8922 145.7558 151° Southeast 52 60 700  Level Aus ATC (RADAR)
Tue 08:19:29 PM -16.9079 145.7648 151° Southeast 43 49 1,500 480 Climbing Aus ATC (RADAR)
Tue 08:20:29 PM -16.9190 145.7704 154° Southeast 43 49 1,900 436 Climbing Aus ATC (RADAR)
Tue 08:21:19 PM -16.9280 145.7747 156° South 43 49 2,300 500 Climbing Aus ATC (RADAR)
Tue 08:21:53 PM -16.9350 145.7765 167° South 43 49 2,600 456 Climbing Aus ATC (RADAR)
Tue 08:22:38 PM -16.9417 145.7685 229° Southwest 65 75 2,900 480 Climbing Aus ATC (RADAR)
Tue 08:23:08 PM -16.9447 145.7607 248° West 57 66 3,200 462 Climbing Aus ATC (RADAR)
Tue 08:23:43 PM -16.9507 145.7526 232° Southwest 60 69 3,400 400 Climbing Aus ATC (RADAR)
Tue 08:24:23 PM -16.9580 145.7437 230° Southwest 60 69 3,700 400 Climbing Aus ATC (RADAR)
Tue 08:24:58 PM -16.9637 145.7352 235° Southwest 60 69 3,900 400 Climbing Aus ATC (RADAR)
Tue 08:25:53 PM -16.9728 145.7209 236° Southwest 66 76 4,300 343 Climbing Aus ATC (RADAR)
Tue 08:26:43 PM -16.9814 145.7059 239° Southwest 71 82 4,500 360 Climbing Aus ATC (RADAR)
Tue 08:27:33 PM -16.9901 145.6901 240° Southwest 75 86 4,900 353 Climbing Aus ATC (RADAR)
Tue 08:28:08 PM -16.9975 145.6796 233° Southwest 75 86 5,000 212 Climbing Aus ATC (RADAR)
Tue 08:28:58 PM -17.0095 145.6646 230° Southwest 81 93 5,200 436 Climbing Aus ATC (RADAR)
Tue 08:29:58 PM -17.0216 145.6434 239° Southwest 83 96 5,800 436 Climbing Aus ATC (RADAR)
Tue 08:30:48 PM -17.0329 145.6265 235° Southwest 85 98 6,000 286 Climbing Aus ATC (RADAR)
Tue 08:31:22 PM -17.0406 145.6145 236° Southwest 85 98 6,200 319 Climbing Aus ATC (RADAR)
Tue 08:32:22 PM -17.0531 145.5955 235° Southwest 83 96 6,500 103 Climbing Aus ATC (RADAR)
Tue 08:33:18 PM -17.0695 145.5737 232° Southwest 109 125 6,400  Descending Aus ATC (RADAR)
Tue 08:34:22 PM -17.0887 145.5420 238° Southwest 120 138 6,500 50 Climbing Aus ATC (RADAR)
Tue 08:35:17 PM -17.1010 145.5137 246° West 117 135 6,500  Level Aus ATC (RADAR)
Tue 08:36:02 PM -17.1102 145.4900 248° West 117 135 6,500  Level Aus ATC (RADAR)
Tue 08:36:37 PM -17.1183 145.4716 245° Southwest 120 138 6,500  Level Aus ATC (RADAR)
Tue 08:40:05 PM -17.1772 145.3747 237° Southwest 1,100 -1,558 Descending Aus ATC (Calculated)
Tue 08:42:00 PM -17.2059 145.3283 237° Southwest  Level FlightAware Approximate
Tue 08:43:00 PM -17.2209 145.3041 237° Southwest  Level FlightAware Approximate
Tue 08:43:31 PM -17.2331 145.2845 238° Southwest 1,100  Level Aus ATC (Calculated)
Tue 08:44:00 PM -17.2359 145.2799 237° Southwest  Level FlightAware Approximate
Tue 08:44:39 PM -17.2606 145.2401 57° Northeast 1,100  Level Aus ATC (Calculated)
Tue 08:45:00 PM -17.2553 145.2486 237° Southwest  Level FlightAware Approximate
Tue 08:46:00 PM -17.2808 145.2074 237° Southwest  Level FlightAware Approximate
Tue 08:47:00 PM -17.2958 145.1832 237° Southwest  Level FlightAware Approximate
Tue 08:48:00 PM -17.3107 145.1589 237° Southwest  Level FlightAware Approximate
Tue 08:49:00 PM -17.3257 145.1347 237° Southwest  Level FlightAware Approximate
Tue 08:50:00 PM -17.3407 145.1105 237° Southwest  Level FlightAware Approximate
Tue 08:51:00 PM -17.3556 145.0862 237° Southwest  Level FlightAware Approximate
Tue 08:52:00 PM -17.3706 145.0620 237° Southwest  Level FlightAware Approximate
Tue 08:53:00 PM -17.3855 145.0377 237° Southwest  Level FlightAware Approximate
Tue 08:54:00 PM -17.4005 145.0135 237° Southwest  Level FlightAware Approximate
Tue 08:55:00 PM -17.4154 144.9892 237° Southwest  Level FlightAware Approximate
Tue 08:56:00 PM -17.4303 144.9649 237° Southwest  Level FlightAware Approximate
Tue 08:57:00 PM -17.4453 144.9407 237° Southwest  Level FlightAware Approximate
Tue 08:58:00 PM -17.4602 144.9164 237° Southwest  Level FlightAware Approximate
Tue 08:59:00 PM -17.4752 144.8921 237° Southwest  Level FlightAware Approximate
Tue 08:59:45 PM -17.5056 144.8431 360° North 1,100  Level Aus ATC (Calculated)
Tue 08:59:45 PM -17.5056 144.8431 57° Northeast 1,100  Level Aus ATC (Calculated)
Tue 09:00:00 PM -17.4901 144.8678 237° Southwest  Level FlightAware Approximate
Tue 09:01:00 PM -17.5242 144.8127 237° Southwest  Level FlightAware Approximate
Tue 09:02:00 PM -17.5391 144.7884 237° Southwest  Level FlightAware Approximate
Tue 09:03:00 PM -17.5540 144.7641 237° Southwest  Level FlightAware Approximate
Tue 09:04:00 PM -17.5690 144.7398 237° Southwest  Level FlightAware Approximate
Tue 09:05:00 PM -17.5839 144.7155 237° Southwest  Level FlightAware Approximate
Tue 09:06:00 PM -17.5988 144.6912 237° Southwest  Level FlightAware Approximate
Tue 09:07:00 PM -17.6137 144.6669 237° Southwest  Level FlightAware Approximate
Tue 09:08:00 PM -17.6286 144.6426 237° Southwest  Level FlightAware Approximate
Tue 09:09:00 PM -17.6435 144.6183 237° Southwest  Level FlightAware Approximate
Tue 09:10:00 PM -17.6584 144.5939 237° Southwest  Level FlightAware Approximate
Tue 09:11:00 PM -17.6733 144.5696 237° Southwest  Level FlightAware Approximate
Tue 09:12:00 PM -17.6881 144.5453 237° Southwest  Level FlightAware Approximate
Tue 09:13:00 PM -17.7030 144.5209 237° Southwest  Level FlightAware Approximate
Tue 09:14:00 PM -17.7179 144.4966 237° Southwest  Level FlightAware Approximate
Tue 09:15:00 PM -17.7328 144.4722 237° Southwest  Level FlightAware Approximate
Tue 09:16:00 PM -17.7477 144.4479 237° Southwest  Level FlightAware Approximate
Tue 09:17:00 PM -17.7625 144.4235 237° Southwest  Level FlightAware Approximate
Tue 09:18:00 PM -17.7774 144.3992 237° Southwest  Level FlightAware Approximate
Tue 09:19:00 PM -17.7923 144.3748 237° Southwest  Level FlightAware Approximate
Tue 09:20:00 PM -17.8071 144.3504 237° Southwest  Level FlightAware Approximate
Tue 09:21:00 PM -17.8220 144.3260 237° Southwest  Level FlightAware Approximate
Tue 09:22:00 PM -17.8368 144.3017 237° Southwest  Level FlightAware Approximate
Tue 09:23:00 PM -17.8517 144.2773 237° Southwest  Level FlightAware Approximate
Tue 09:24:00 PM -17.8666 144.2529 237° Southwest  Level FlightAware Approximate
Tue 09:25:00 PM -17.8814 144.2285 237° Southwest  Level FlightAware Approximate
Tue 09:26:00 PM -17.8962 144.2041 237° Southwest  Level FlightAware Approximate
Tue 09:27:00 PM -17.9111 144.1797 237° Southwest  Level FlightAware Approximate
Tue 09:28:00 PM -17.9259 144.1553 237° Southwest  Level FlightAware Approximate
Tue 09:29:00 PM -17.9408 144.1309 237° Southwest  Level FlightAware Approximate
Tue 09:30:00 PM -17.9556 144.1065 237° Southwest  Level FlightAware Approximate
Tue 09:31:00 PM -17.9704 144.0821 237° Southwest  Level FlightAware Approximate
Tue 09:32:00 PM -17.9858 144.0580 238° Southwest  Level Estimated
Tue 09:33:00 PM -18.0006 144.0336 237° Southwest  Level FlightAware Approximate
Tue 09:34:00 PM -18.0154 144.0092 237° Southwest  Level FlightAware Approximate
Tue 09:35:00 PM -18.0303 143.9847 237° Southwest  Level FlightAware Approximate
Tue 09:36:00 PM -18.0451 143.9603 237° Southwest  Level FlightAware Approximate
Tue 09:37:00 PM -18.0599 143.9359 237° Southwest  Level FlightAware Approximate
Tue 09:38:00 PM -18.0747 143.9115 237° Southwest  Level FlightAware Approximate
Tue 09:39:00 PM -18.0896 143.8870 237° Southwest  Level FlightAware Approximate
Tue 09:40:00 PM -18.1044 143.8626 237° Southwest  Level FlightAware Approximate
Tue 09:41:00 PM -18.1192 143.8381 237° Southwest  Level FlightAware Approximate
Tue 09:42:00 PM -18.1340 143.8137 237° Southwest  Level FlightAware Approximate
Tue 09:43:00 PM -18.1488 143.7892 237° Southwest  Level FlightAware Approximate
Tue 09:44:00 PM -18.1636 143.7648 237° Southwest  Level FlightAware Approximate
Tue 09:44:45 PM -18.2096 143.6888 18° North 1,100  Level Aus ATC (Calculated)
Tue 09:44:45 PM -18.2096 143.6888 58° Northeast 1,100  Level Aus ATC (Calculated)
Tue 09:45:00 PM -18.1784 143.7403 238° Southwest  Level FlightAware Approximate
Tue 09:46:00 PM -18.2281 143.6582 238° Southwest  Level FlightAware Approximate
Tue 09:47:00 PM -18.2428 143.6337 238° Southwest  Level FlightAware Approximate
Tue 09:48:00 PM -18.2576 143.6093 238° Southwest  Level FlightAware Approximate
Tue 09:49:00 PM -18.2724 143.5848 238° Southwest  Level FlightAware Approximate
Tue 09:50:00 PM -18.2872 143.5603 238° Southwest  Level FlightAware Approximate
Tue 09:51:00 PM -18.3020 143.5358 238° Southwest  Level FlightAware Approximate
Tue 09:52:00 PM -18.3167 143.5113 238° Southwest  Level FlightAware Approximate
Tue 09:53:00 PM -18.3315 143.4868 238° Southwest  Level FlightAware Approximate
Tue 09:54:00 PM -18.3463 143.4623 238° Southwest  Level FlightAware Approximate
Tue 09:55:00 PM -18.3610 143.4378 238° Southwest  Level FlightAware Approximate
Tue 09:56:00 PM -18.3758 143.4132 238° Southwest  Level FlightAware Approximate
Tue 09:57:00 PM -18.3906 143.3887 238° Southwest  Level FlightAware Approximate
Tue 09:58:00 PM -18.4053 143.3642 238° Southwest  Level FlightAware Approximate
Tue 09:59:00 PM -18.4200 143.3397 238° Southwest  Level FlightAware Approximate
Tue 10:00:00 PM -18.4348 143.3151 238° Southwest  Level FlightAware Approximate
Tue 10:01:00 PM -18.4495 143.2906 238° Southwest  Level FlightAware Approximate
Tue 10:02:00 PM -18.4643 143.2661 238° Southwest  Level FlightAware Approximate
Tue 10:03:00 PM -18.4790 143.2415 238° Southwest  Level FlightAware Approximate
Tue 10:04:00 PM -18.4937 143.2169 238° Southwest  Level FlightAware Approximate
Tue 10:05:00 PM -18.5085 143.1924 238° Southwest  Level FlightAware Approximate
Tue 10:06:00 PM -18.5232 143.1678 238° Southwest  Level FlightAware Approximate
Tue 10:07:00 PM -18.5379 143.1433 238° Southwest  Level FlightAware Approximate
Tue 10:08:00 PM -18.5527 143.1187 238° Southwest  Level FlightAware Approximate
Tue 10:09:00 PM -18.5674 143.0941 238° Southwest  Level FlightAware Approximate
Tue 10:10:00 PM -18.5821 143.0695 238° Southwest  Level FlightAware Approximate
Tue 10:11:00 PM -18.5968 143.0450 238° Southwest  Level FlightAware Approximate
Tue 10:12:00 PM -18.6115 143.0204 238° Southwest  Level FlightAware Approximate
Tue 10:13:00 PM -18.6262 142.9958 238° Southwest  Level FlightAware Approximate
Tue 10:14:00 PM -18.6409 142.9712 238° Southwest  Level FlightAware Approximate
Tue 10:15:00 PM -18.6556 142.9466 238° Southwest  Level FlightAware Approximate
Tue 10:16:00 PM -18.6703 142.9220 238° Southwest  Level FlightAware Approximate
Tue 10:17:00 PM -18.6850 142.8974 238° Southwest  Level FlightAware Approximate
Tue 10:18:00 PM -18.6997 142.8728 238° Southwest  Level FlightAware Approximate
Tue 10:19:00 PM -18.7144 142.8482 238° Southwest  Level FlightAware Approximate
Tue 10:20:00 PM -18.7291 142.8236 238° Southwest  Level FlightAware Approximate
Tue 10:21:00 PM -18.7438 142.7989 238° Southwest  Level FlightAware Approximate
Tue 10:22:00 PM -18.7584 142.7743 238° Southwest  Level FlightAware Approximate
Tue 10:23:00 PM -18.7731 142.7497 238° Southwest  Level FlightAware Approximate
Tue 10:24:00 PM -18.7878 142.7250 238° Southwest  Level FlightAware Approximate
Tue 10:25:00 PM -18.8025 142.7004 238° Southwest  Level FlightAware Approximate
Tue 10:26:00 PM -18.8171 142.6758 238° Southwest  Level FlightAware Approximate
Tue 10:27:00 PM -18.8318 142.6511 238° Southwest  Level FlightAware Approximate
Tue 10:28:00 PM -18.8464 142.6265 238° Southwest  Level FlightAware Approximate
Tue 10:29:00 PM -18.8611 142.6018 238° Southwest  Level FlightAware Approximate
Tue 10:30:00 PM -18.8757 142.5771 238° Southwest  Level FlightAware Approximate
Tue 10:31:00 PM -18.8904 142.5525 238° Southwest  Level FlightAware Approximate
Tue 10:32:00 PM -18.9051 142.5278 238° Southwest  Level FlightAware Approximate
Tue 10:33:00 PM -18.9197 142.5031 238° Southwest  Level FlightAware Approximate
Tue 10:34:00 PM -18.9343 142.4784 238° Southwest  Level FlightAware Approximate
Tue 10:35:00 PM -18.9490 142.4537 238° Southwest  Level FlightAware Approximate
Tue 10:36:00 PM -18.9636 142.4290 238° Southwest  Level FlightAware Approximate
Tue 10:37:00 PM -18.9782 142.4044 238° Southwest  Level FlightAware Approximate
Tue 10:38:00 PM -18.9928 142.3797 238° Southwest  Level FlightAware Approximate
Tue 10:39:00 PM -19.0075 142.3550 238° Southwest  Level FlightAware Approximate
Tue 10:40:00 PM -19.0221 142.3302 238° Southwest  Level FlightAware Approximate
Tue 10:41:00 PM -19.0367 142.3055 238° Southwest  Level FlightAware Approximate
Tue 10:42:00 PM -19.0513 142.2808 238° Southwest  Level FlightAware Approximate
Tue 10:43:00 PM -19.0659 142.2561 238° Southwest  Level FlightAware Approximate
Tue 10:44:00 PM -19.0805 142.2314 238° Southwest  Level FlightAware Approximate
Tue 10:45:00 PM -19.0951 142.2067 238° Southwest  Level FlightAware Approximate
Tue 10:46:00 PM -19.1097 142.1819 238° Southwest  Level FlightAware Approximate
Tue 10:47:00 PM -19.1243 142.1572 238° Southwest  Level FlightAware Approximate
Tue 10:48:00 PM -19.1389 142.1324 238° Southwest  Level FlightAware Approximate
Tue 10:49:00 PM -19.1535 142.1077 238° Southwest  Level FlightAware Approximate
Tue 10:50:00 PM -19.1681 142.0830 238° Southwest  Level FlightAware Approximate
Tue 10:51:00 PM -19.1827 142.0582 238° Southwest  Level FlightAware Approximate
Tue 10:52:00 PM -19.1973 142.0334 238° Southwest  Level FlightAware Approximate
Tue 10:53:00 PM -19.2118 142.0087 238° Southwest  Level FlightAware Approximate
Tue 10:54:00 PM -19.2264 141.9839 238° Southwest  Level FlightAware Approximate
Tue 10:55:00 PM -19.2410 141.9592 238° Southwest  Level FlightAware Approximate
Tue 10:56:00 PM -19.2556 141.9344 238° Southwest  Level FlightAware Approximate
Tue 10:57:00 PM -19.2701 141.9096 238° Southwest  Level FlightAware Approximate
Tue 10:58:00 PM -19.2847 141.8848 238° Southwest  Level FlightAware Approximate
Tue 10:59:00 PM -19.2992 141.8600 238° Southwest  Level FlightAware Approximate
Tue 11:00:00 PM -19.3138 141.8352 238° Southwest  Level FlightAware Approximate
Tue 11:01:00 PM -19.3283 141.8104 238° Southwest  Level FlightAware Approximate
Tue 11:02:00 PM -19.3429 141.7856 238° Southwest  Level FlightAware Approximate
Tue 11:03:00 PM -19.3574 141.7608 238° Southwest  Level FlightAware Approximate
Tue 11:04:00 PM -19.3720 141.7360 238° Southwest  Level FlightAware Approximate
Tue 11:05:00 PM -19.3865 141.7112 238° Southwest  Level FlightAware Approximate
Tue 11:06:00 PM -19.4010 141.6864 238° Southwest  Level FlightAware Approximate
Tue 11:07:00 PM -19.4156 141.6615 238° Southwest  Level FlightAware Approximate
Tue 11:08:00 PM -19.4301 141.6367 238° Southwest  Level FlightAware Approximate
Tue 11:09:00 PM -19.4446 141.6119 238° Southwest  Level FlightAware Approximate
Tue 11:10:00 PM -19.4591 141.5871 238° Southwest  Level FlightAware Approximate
Tue 11:11:00 PM -19.4736 141.5622 238° Southwest  Level FlightAware Approximate
Tue 11:12:00 PM -19.4881 141.5374 238° Southwest  Level FlightAware Approximate
Tue 11:13:00 PM -19.5027 141.5125 238° Southwest  Level FlightAware Approximate
Tue 11:14:00 PM -19.5172 141.4877 238° Southwest  Level FlightAware Approximate
Tue 11:15:00 PM -19.5317 141.4628 238° Southwest  Level FlightAware Approximate
Tue 11:16:00 PM -19.5462 141.4379 238° Southwest  Level FlightAware Approximate
Tue 11:17:00 PM -19.5606 141.4131 238° Southwest  Level FlightAware Approximate
Tue 11:18:00 PM -19.5751 141.3882 238° Southwest  Level FlightAware Approximate
Tue 11:19:00 PM -19.5896 141.3633 238° Southwest  Level FlightAware Approximate
Tue 11:20:00 PM -19.6041 141.3384 238° Southwest  Level FlightAware Approximate
Tue 11:21:00 PM -19.6186 141.3135 238° Southwest  Level FlightAware Approximate
Tue 11:22:00 PM -19.6331 141.2887 238° Southwest  Level FlightAware Approximate
Tue 11:23:00 PM -19.6475 141.2637 238° Southwest  Level FlightAware Approximate
Tue 11:24:00 PM -19.6620 141.2388 238° Southwest  Level Estimated
Tue 11:25:00 PM -19.6765 141.2139 238° Southwest  Level Estimated
Tue 11:26:00 PM -19.6909 141.1890 238° Southwest  Level Estimated
Tue 11:27:00 PM -19.7054 141.1641 238° Southwest  Level Estimated
Tue 11:28:00 PM -19.7199 141.1392 238° Southwest  Level Estimated
Tue 11:29:00 PM -19.7343 141.1143 238° Southwest  Level Estimated
Tue 11:30:00 PM -19.7488 141.0894 238° Southwest  Level Estimated
Tue 11:31:00 PM -19.7632 141.0644 238° Southwest  Level Estimated
Tue 11:32:00 PM -19.7777 141.0395 238° Southwest  Level Estimated
Tue 11:33:00 PM -19.7921 141.0146 238° Southwest  Level Estimated
Tue 11:33:55 PM -19.8313 140.9467 58° Northeast 1,100  Level Aus ATC (Calculated)
Tue 11:34:00 PM -19.8065 140.9896 238° Southwest  Level Estimated
Tue 11:35:00 PM -19.8470 140.9196 238° Southwest  Level Estimated
Tue 11:36:00 PM -19.8615 140.8945 238° Southwest  Level Estimated
Tue 11:37:00 PM -19.8760 140.8695 238° Southwest  Level Estimated
Tue 11:38:00 PM -19.8904 140.8444 238° Southwest  Level Estimated
Tue 11:39:00 PM -19.9049 140.8193 238° Southwest  Level Estimated
Tue 11:40:00 PM -19.9194 140.7942 238° Southwest  Level Estimated
Tue 11:41:00 PM -19.9338 140.7692 238° Southwest  Level Estimated
Tue 11:42:00 PM -19.9483 140.7441 238° Southwest  Level Estimated
Tue 11:43:00 PM -19.9628 140.7190 238° Southwest  Level Estimated
Tue 11:44:00 PM -19.9772 140.6939 238° Southwest  Level Estimated
Tue 11:45:00 PM -19.9917 140.6688 238° Southwest  Level Estimated
Tue 11:46:00 PM -20.0061 140.6437 238° Southwest  Level Estimated
Tue 11:46:54 PM -20.0145 140.6291 322° Northwest 1,100  Level Aus ATC (Calculated)
Tue 11:46:54 PM -20.0145 140.6291 238° Southwest 1,100  Level Aus ATC (Calculated)
Tue 11:47:00 PM -20.0205 140.6186 238° Southwest  Level Estimated
Tue 11:48:00 PM -20.0350 140.5934 238° Southwest  Level Estimated
Tue 11:49:00 PM -20.0448 140.5763 238° Southwest  Level Estimated
Tue 11:50:00 PM -20.0592 140.5512 238° Southwest  Level Estimated
Tue 11:51:00 PM -20.0736 140.5261 238° Southwest  Level Estimated
Tue 11:52:00 PM -20.0881 140.5009 238° Southwest  Level Estimated
Tue 11:53:00 PM -20.1025 140.4758 238° Southwest  Level Estimated
Tue 11:54:00 PM -20.1169 140.4507 238° Southwest  Level Estimated
Tue 11:55:00 PM -20.1313 140.4255 238° Southwest  Level Estimated
Tue 11:56:00 PM -20.1457 140.4004 238° Southwest  Level Estimated
Tue 11:57:00 PM -20.1601 140.3752 238° Southwest  Level Estimated
Tue 11:58:00 PM -20.1745 140.3501 238° Southwest  Level Estimated
Tue 11:59:00 PM -20.1889 140.3249 238° Southwest  Level Estimated
Wed 12:00:00 AM -20.2033 140.2997 238° Southwest  Level Estimated
Wed 12:01:00 AM -20.2177 140.2746 238° Southwest  Level Estimated
Wed 12:02:00 AM -20.2321 140.2494 238° Southwest  Level Estimated
Wed 12:03:00 AM -20.2465 140.2242 238° Southwest  Level Estimated
Wed 12:04:00 AM -20.2609 140.1990 238° Southwest  Level Estimated
Wed 12:05:00 AM -20.2752 140.1738 238° Southwest  Level Estimated
Wed 12:06:00 AM -20.2896 140.1486 238° Southwest  Level Estimated
Wed 12:07:00 AM -20.3040 140.1234 238° Southwest  Level Estimated
Wed 12:08:00 AM -20.3184 140.0982 238° Southwest  Level Estimated
Wed 12:09:00 AM -20.3327 140.0730 238° Southwest  Level Estimated
Wed 12:10:00 AM -20.3471 140.0478 238° Southwest  Level Estimated
Wed 12:11:00 AM -20.3614 140.0226 238° Southwest  Level Estimated
Wed 12:12:00 AM -20.3758 139.9973 238° Southwest  Level Estimated
Wed 12:13:00 AM -20.3901 139.9721 238° Southwest  Level Estimated
Wed 12:14:00 AM -20.4045 139.9469 238° Southwest  Level Estimated
Wed 12:15:00 AM -20.4188 139.9216 238° Southwest  Level Estimated
Wed 12:16:00 AM -20.4332 139.8964 238° Southwest  Level Estimated
Wed 12:17:00 AM -20.4475 139.8711 238° Southwest  Level Estimated
Wed 12:18:00 AM -20.4618 139.8459 238° Southwest  Level Estimated
Wed 12:19:00 AM -20.4762 139.8206 238° Southwest  Level Estimated
Wed 12:20:00 AM -20.4905 139.7953 238° Southwest  Level Estimated
Wed 12:21:00 AM -20.5048 139.7701 238° Southwest  Level Estimated
Wed 12:22:00 AM -20.5191 139.7448 238° Southwest  Level Estimated
Wed 12:23:00 AM -20.5334 139.7195 238° Southwest  Level Estimated
Wed 12:24:00 AM -20.5477 139.6942 238° Southwest  Level Estimated
Wed 12:25:00 AM -20.5620 139.6690 238° Southwest  Level Estimated
Wed 12:26:00 AM -20.5763 139.6437 238° Southwest  Level Estimated
Wed 12:27:00 AM -20.5907 139.6184 238° Southwest  Level Estimated
Wed 12:28:00 AM -20.6049 139.5931 238° Southwest  Level Estimated
Wed 12:29:00 AM -20.6192 139.5678 238° Southwest  Level Estimated
Wed 12:30:00 AM -20.6335 139.5424 238° Southwest  Level Estimated
Wed 12:31:00 AM -20.6478 139.5171 238° Southwest  Level Estimated
Wed 12:31:54 AM -20.6639 139.4887 360° North 1,100  Level Aus ATC (Calculated)
Wed 12:32:00 AM -20.6639 139.4887 238° Southwest  Level FlightAware Approximate
Wed 12:33:00 AM -20.6639 139.4886 238° Southwest  Level Estimated
Wed 12:34:00 AM -20.6639 139.4886 238° Southwest  Level Estimated
Wed 12:35:00 AM -20.6639 139.4886 238° Southwest  Level Estimated
Wed 12:36:00 AM -20.6639 139.4886 238° Southwest  Level Estimated
Wed 12:37:00 AM -20.6639 139.4886 238° Southwest  Level Estimated
Wed 12:38:00 AM -20.6639 139.4886 238° Southwest  Level Estimated
Wed 12:39:00 AM -20.6639 139.4886 238° Southwest  Level Estimated
Wed 12:40:00 AM -20.6639 139.4886 238° Southwest  Level Estimated
Wed 12:41:00 AM -20.6639 139.4886 238° Southwest  Level Estimated
Wed 12:42:00 AM -20.6639 139.4886 238° Southwest  Level Estimated
Wed 12:43:00 AM -20.6639 139.4886 238° Southwest  Level Estimated
Wed 12:44:00 AM -20.6639 139.4886 238° Southwest  Level Estimated
Wed 12:45:00 AM -20.6639 139.4886 238° Southwest  Level Estimated
Wed 12:46:00 AM -20.6639 139.4886 238° Southwest  Level Estimated
Wed 12:47:00 AM -20.6639 139.4886 238° Southwest  Level Estimated

Login

Don't have an account? Register now (free) for customized features, flight alerts, and more!